Cincinnati, Ohio
Traffic Map
Current Weather Conditions
Cincinnati, Ohio
Overcast
Overcast
26°
Feels Like: 18°
Wind Chill: 18° Ceiling: 2000
Heat Index: 26° Visibility: 10mi
Dew Point: 19° Wind: 7mph
Humidity: 75% Direction: 350° (N)
Pressure: 30.32in Gusts: 0mph
Raw Report DataKLUK 180653Z AUTO 35006KT 10SM OVC020 M03/M07 A3032 RMK AO2 SLP271 T10331072
Traffic Incident Summary
Active as of:
Severity:
Category:
InformationThere was an issue retrieving the traffic information for this location. Please try a different location or try again shortly.
Advertisements
Track Severe Weather on mobile